Time;durP1;ratioP1;P1;durP2;ratioP2;P2;SDS_P1;SDS_P2;PMS_P1;PMS_P2;Temp;Humidity;BMP_temperature;BMP_pressure;BME280_temperature;BME280_humidity;BME280_pressure;Samples;Min_cycle;Max_cycle;Signal;HPM_P1;HPM_P2
2022/06/12 00:00:33;;;;;;;12.60;3.95;;;12.30;99.90;;;;;;5018820;28;20042;-73
2022/06/12 00:03:01;;;;;;;13.27;4.45;;;12.20;99.90;;;;;;5004532;28;20050;-73
2022/06/12 00:05:30;;;;;;;13.82;4.32;;;12.20;99.90;;;;;;4987778;28;20124;-73
2022/06/12 00:07:56;;;;;;;13.15;4.15;;;12.20;99.90;;;;;;5004814;28;20050;-73
2022/06/12 00:10:21;;;;;;;14.65;4.40;;;12.20;99.90;;;;;;5005881;28;20069;-72
2022/06/12 00:12:48;;;;;;;14.20;4.40;;;12.20;99.90;;;;;;5002560;28;20053;-73
2022/06/12 00:15:18;;;;;;;13.05;4.40;;;12.20;99.90;;;;;;5005931;28;20131;-72
2022/06/12 00:17:44;;;;;;;15.10;5.00;;;12.20;99.90;;;;;;5004733;28;20056;-73
2022/06/12 00:20:13;;;;;;;12.15;3.85;;;12.20;99.90;;;;;;5004362;28;20300;-73
2022/06/12 00:22:41;;;;;;;12.93;4.85;;;12.20;99.90;;;;;;5004327;28;20048;-72
2022/06/12 00:25:09;;;;;;;12.75;3.17;;;12.20;99.90;;;;;;4988450;28;20059;-73
2022/06/12 00:27:36;;;;;;;11.27;3.50;;;12.20;99.90;;;;;;4989307;28;20037;-73
2022/06/12 00:30:04;;;;;;;12.82;3.63;;;12.20;99.90;;;;;;5004684;28;20048;-73
2022/06/12 00:32:30;;;;;;;7.80;2.92;;;12.20;99.90;;;;;;4987136;28;20076;-72
2022/06/12 00:34:57;;;;;;;16.90;4.65;;;12.30;99.90;;;;;;5001920;28;20073;-73
2022/06/12 00:37:25;;;;;;;9.90;3.20;;;12.10;99.90;;;;;;4996614;28;20505;-73
2022/06/12 00:39:53;;;;;;;17.52;4.50;;;12.10;99.90;;;;;;4985687;28;20038;-72
2022/06/12 00:42:26;;;;;;;14.55;3.17;;;12.20;99.90;;;;;;4986569;28;20049;-72
2022/06/12 00:44:55;;;;;;;11.20;3.55;;;12.10;99.90;;;;;;4988160;28;20049;-73
2022/06/12 00:47:21;;;;;;;13.00;3.55;;;12.10;99.90;;;;;;5001440;28;20128;-73
2022/06/12 00:49:54;;;;;;;12.10;3.33;;;12.10;99.90;;;;;;5001377;28;20129;-73
2022/06/12 00:52:27;;;;;;;14.82;3.50;;;12.10;99.90;;;;;;4988416;28;20107;-72
2022/06/12 00:54:57;;;;;;;14.63;3.90;;;12.10;99.90;;;;;;5004745;28;20046;-73
2022/06/12 00:57:24;;;;;;;18.50;3.72;;;12.10;99.90;;;;;;5001437;28;20057;-73
2022/06/12 01:00:07;;;;;;;12.30;3.63;;;12.10;99.90;;;;;;5003668;28;20037;-73
2022/06/12 01:02:34;;;;;;;11.77;3.53;;;12.10;99.90;;;;;;5020575;28;20406;-73
2022/06/12 01:07:51;;;;;;;13.30;3.55;;;12.00;99.90;;;;;;5003204;28;20057;-73
2022/06/12 01:10:20;;;;;;;12.73;3.45;;;12.00;99.90;;;;;;5004473;28;20388;-73
2022/06/12 01:12:54;;;;;;;15.27;3.15;;;12.00;99.90;;;;;;5000289;28;20103;-72
2022/06/12 01:15:40;;;;;;;14.88;3.17;;;12.00;99.90;;;;;;4998853;28;20057;-73
2022/06/12 01:18:10;;;;;;;14.25;3.78;;;12.00;99.90;;;;;;4986211;28;20052;-72
2022/06/12 01:21:22;;;;;;;14.45;3.95;;;12.00;99.90;;;;;;5000193;28;20402;-73
2022/06/12 01:24:24;;;;;;;12.65;3.33;;;12.00;99.90;;;;;;4956846;28;20052;-73
2022/06/12 01:26:49;;;;;;;16.52;3.28;;;12.00;99.90;;;;;;4986110;28;20049;-73
2022/06/12 01:29:47;;;;;;;12.23;2.90;;;12.10;99.90;;;;;;5003929;28;20199;-73
2022/06/12 01:32:32;;;;;;;12.88;3.30;;;12.20;99.90;;;;;;4983923;28;20054;-73
2022/06/12 01:35:36;;;;;;;17.77;3.03;;;12.10;99.90;;;;;;4988321;28;20155;-73
2022/06/12 01:38:25;;;;;;;15.23;2.80;;;12.10;99.90;;;;;;5005182;28;20134;-73
2022/06/12 01:40:58;;;;;;;13.40;3.00;;;12.00;99.90;;;;;;4974836;28;20042;-74
2022/06/12 01:44:00;;;;;;;11.35;3.63;;;12.00;99.90;;;;;;4981234;28;20060;-73
2022/06/12 01:46:38;;;;;;;11.65;2.63;;;12.00;99.90;;;;;;4989773;28;20558;-74
2022/06/12 01:49:19;;;;;;;16.75;3.40;;;12.00;99.90;;;;;;4984581;28;20317;-73
2022/06/12 01:51:57;;;;;;;15.43;2.92;;;12.00;99.90;;;;;;4989012;28;20050;-73
2022/06/12 01:54:38;;;;;;;14.98;2.92;;;12.00;99.90;;;;;;5006102;28;20064;-73
2022/06/12 01:57:12;;;;;;;15.23;3.38;;;12.00;99.90;;;;;;4970095;28;20053;-73
2022/06/12 01:59:43;;;;;;;14.77;2.80;;;12.10;99.90;;;;;;4987381;28;20065;-73
2022/06/12 02:02:17;;;;;;;;;;;12.00;99.90;;;;;;4988657;28;20042;-73
2022/06/12 02:04:52;;;;;;;10.25;3.03;;;12.00;99.90;;;;;;4990626;28;19925;-73
2022/06/12 02:07:25;;;;;;;15.38;2.72;;;12.00;99.90;;;;;;4989251;28;20058;-73
2022/06/12 02:09:59;;;;;;;15.15;3.22;;;12.00;99.90;;;;;;4958148;28;20042;-74
2022/06/12 02:15:19;;;;;;;12.32;3.05;;;12.00;99.90;;;;;;5018756;28;20522;-73
2022/06/12 02:17:52;;;;;;;17.85;3.03;;;12.00;99.90;;;;;;5002499;28;20115;-73
2022/06/12 02:20:21;;;;;;;12.82;3.20;;;12.00;99.90;;;;;;5004257;28;20049;-73
2022/06/12 02:22:49;;;;;;;14.05;3.45;;;12.00;99.90;;;;;;5003953;28;20249;-74
2022/06/12 02:25:27;;;;;;;13.80;3.60;;;12.00;99.90;;;;;;5005219;28;20443;-73
2022/06/12 02:28:22;;;;;;;13.90;3.20;;;12.00;99.90;;;;;;5003985;28;20570;-73
2022/06/12 02:30:52;;;;;;;13.70;4.15;;;12.00;99.90;;;;;;4988708;28;20038;-73
2022/06/12 02:33:26;;;;;;;14.27;3.08;;;12.00;99.90;;;;;;5005969;28;20089;-74
2022/06/12 02:35:56;;;;;;;16.85;3.25;;;12.00;99.90;;;;;;4999796;28;20046;-74
2022/06/12 02:38:27;;;;;;;16.13;3.03;;;12.00;99.90;;;;;;5006412;28;20089;-73
2022/06/12 02:41:04;;;;;;;11.93;3.95;;;12.00;99.90;;;;;;5004401;28;20042;-74
2022/06/12 02:43:33;;;;;;;17.08;3.50;;;11.90;99.90;;;;;;5002085;28;20088;-74
2022/06/12 02:46:30;;;;;;;12.35;3.25;;;11.90;99.90;;;;;;4990428;28;20038;-74
2022/06/12 02:48:56;;;;;;;13.77;3.83;;;11.90;99.90;;;;;;4958926;28;20062;-73
2022/06/12 02:51:38;;;;;;;16.35;3.42;;;11.90;99.90;;;;;;5006398;28;20030;-74
2022/06/12 02:54:12;;;;;;;13.38;3.22;;;11.90;99.90;;;;;;4985000;28;20076;-74
2022/06/12 02:56:38;;;;;;;16.35;3.63;;;11.90;99.90;;;;;;5006337;28;20050;-74
2022/06/12 02:59:18;;;;;;;13.73;3.45;;;11.90;99.90;;;;;;4978301;28;20129;-74
2022/06/12 03:02:16;;;;;;;12.63;3.10;;;11.90;99.90;;;;;;5007792;28;20046;-74
2022/06/12 03:05:00;;;;;;;15.50;3.80;;;11.80;99.90;;;;;;5006450;28;20256;-74
2022/06/12 03:07:27;;;;;;;14.77;3.78;;;11.80;99.90;;;;;;5007712;28;20070;-74
2022/06/12 03:09:53;;;;;;;13.52;3.17;;;11.80;99.90;;;;;;5005161;28;20057;-74
2022/06/12 03:12:19;;;;;;;17.60;3.83;;;11.70;99.90;;;;;;5001351;28;20104;-74
2022/06/12 03:14:45;;;;;;;13.68;4.45;;;11.70;99.90;;;;;;5003377;28;20103;-74
2022/06/12 03:17:11;;;;;;;15.02;4.07;;;11.70;99.90;;;;;;4978963;28;20046;-75
2022/06/12 03:19:49;;;;;;;12.30;3.85;;;11.70;99.90;;;;;;4991258;28;20034;-74
2022/06/12 03:22:23;;;;;;;18.63;3.53;;;11.70;99.90;;;;;;4995558;28;20038;-74
2022/06/12 03:24:57;;;;;;;15.13;4.25;;;11.70;99.90;;;;;;5006825;28;20053;-74
2022/06/12 03:27:55;;;;;;;18.85;4.30;;;11.70;99.90;;;;;;4993789;28;20128;-74
2022/06/12 03:30:49;;;;;;;16.20;4.40;;;11.70;99.90;;;;;;4990232;28;20104;-74
2022/06/12 03:33:27;;;;;;;18.63;4.18;;;11.70;99.90;;;;;;4989237;28;20045;-74
2022/06/12 03:36:08;;;;;;;12.65;3.42;;;11.70;99.90;;;;;;4973187;28;20775;-74
2022/06/12 03:38:43;;;;;;;17.02;4.05;;;11.80;99.90;;;;;;4974503;28;20474;-74
2022/06/12 03:41:28;;;;;;;18.40;3.80;;;11.80;99.90;;;;;;5007527;28;20605;-74
2022/06/12 03:44:06;;;;;;;18.13;3.72;;;11.80;99.90;;;;;;4983468;28;20100;-74
2022/06/12 03:46:50;;;;;;;14.20;3.85;;;11.80;99.90;;;;;;5006231;28;20088;-74
2022/06/12 03:49:44;;;;;;;23.10;3.72;;;11.90;99.90;;;;;;4986446;28;20040;-73
2022/06/12 03:52:23;;;;;;;14.70;4.13;;;11.90;99.90;;;;;;4997892;28;20131;-74
2022/06/12 03:55:13;;;;;;;17.25;3.50;;;11.90;99.90;;;;;;4984343;28;20415;-74
2022/06/12 03:57:56;;;;;;;12.10;3.30;;;11.90;99.90;;;;;;4988661;28;20050;-74
2022/06/12 04:00:24;;;;;;;15.35;3.63;;;12.00;99.90;;;;;;4984914;28;20095;-74
2022/06/12 04:03:19;;;;;;;17.45;3.97;;;12.10;99.90;;;;;;4966229;28;20054;-74
2022/06/12 04:06:01;;;;;;;15.82;3.83;;;12.10;99.90;;;;;;4940163;28;20572;-75
2022/06/12 04:08:33;;;;;;;15.13;4.00;;;12.20;99.90;;;;;;4985250;28;20077;-74
2022/06/12 04:10:59;;;;;;;14.73;3.67;;;12.40;99.90;;;;;;4991431;28;20046;-74
2022/06/12 04:13:26;;;;;;;9.55;3.55;;;12.50;99.90;;;;;;4969569;28;20800;-74
2022/06/12 04:16:00;;;;;;;13.02;3.40;;;12.50;99.90;;;;;;5005418;28;20529;-74
2022/06/12 04:18:29;;;;;;;18.50;3.88;;;12.70;99.90;;;;;;5006737;28;20375;-74
2022/06/12 04:21:01;;;;;;;18.23;3.90;;;12.70;99.90;;;;;;5007904;28;20080;-74
2022/06/12 04:23:50;;;;;;;19.10;3.60;;;12.80;99.90;;;;;;5000041;28;20136;-74
2022/06/12 04:26:36;;;;;;;13.30;3.50;;;12.80;99.90;;;;;;4997890;28;20046;-74
2022/06/12 04:29:11;;;;;;;12.77;3.35;;;12.90;99.90;;;;;;4999261;28;20545;-75
2022/06/12 04:31:39;;;;;;;11.48;3.33;;;13.00;99.90;;;;;;4993006;28;20078;-74
2022/06/12 04:34:14;;;;;;;16.20;3.55;;;12.90;99.90;;;;;;4996397;28;20268;-74
2022/06/12 04:36:42;;;;;;;15.95;3.40;;;13.10;99.90;;;;;;5001160;28;20143;-74
2022/06/12 04:39:10;;;;;;;15.82;3.25;;;13.20;99.90;;;;;;4988222;28;20510;-75
2022/06/12 04:41:36;;;;;;;15.13;3.20;;;13.30;99.90;;;;;;5002411;28;20033;-73
2022/06/12 04:44:07;;;;;;;13.85;3.63;;;13.60;99.90;;;;;;5004784;28;20087;-74
2022/06/12 04:46:38;;;;;;;10.70;3.00;;;13.70;99.90;;;;;;5002822;28;20041;-75
2022/06/12 04:49:04;;;;;;;11.98;2.97;;;13.80;99.90;;;;;;5003970;28;20850;-74
2022/06/12 04:51:30;;;;;;;13.30;3.40;;;14.40;99.90;;;;;;5001080;28;20046;-74
2022/06/12 04:53:56;;;;;;;18.20;3.63;;;15.60;99.90;;;;;;5005933;28;20073;-74
2022/06/12 04:56:24;;;;;;;11.27;2.80;;;16.80;99.90;;;;;;4989675;28;20513;-75
2022/06/12 04:58:52;;;;;;;13.52;2.83;;;17.90;99.90;;;;;;4985743;28;20407;-74
2022/06/12 05:01:18;;;;;;;11.18;3.10;;;18.90;99.90;;;;;;5006651;28;20053;-74
2022/06/12 05:03:44;;;;;;;11.48;2.80;;;19.80;99.90;;;;;;5002521;28;20504;-74
2022/06/12 05:06:14;;;;;;;12.60;2.70;;;20.50;99.90;;;;;;5001313;28;20117;-74
2022/06/12 05:08:40;;;;;;;12.02;2.70;;;21.20;99.90;;;;;;5004219;28;20522;-74
2022/06/12 05:11:06;;;;;;;10.38;2.28;;;22.00;99.90;;;;;;5001033;28;20515;-74
2022/06/12 05:13:32;;;;;;;18.75;3.70;;;22.60;99.90;;;;;;5003401;28;20107;-74
2022/06/12 05:15:59;;;;;;;15.35;2.92;;;23.20;99.90;;;;;;4967260;28;20089;-74
2022/06/12 05:18:25;;;;;;;10.95;2.42;;;23.70;99.90;;;;;;4986006;28;20057;-74
2022/06/12 05:20:51;;;;;;;9.25;2.55;;;24.10;99.90;;;;;;4984952;28;20057;-74
2022/06/12 05:23:18;;;;;;;12.27;2.78;;;24.40;99.90;;;;;;4965188;28;20413;-74
2022/06/12 05:25:44;;;;;;;13.73;2.90;;;24.90;99.90;;;;;;4980111;28;20041;-74
2022/06/12 05:28:13;;;;;;;15.43;3.85;;;25.30;99.90;;;;;;4990228;28;20398;-74
2022/06/12 05:30:38;;;;;;;11.65;3.67;;;25.50;99.90;;;;;;4986896;28;20059;-74
2022/06/12 05:33:05;;;;;;;12.13;2.88;;;24.40;99.90;;;;;;5002043;28;20033;-75
2022/06/12 05:35:34;;;;;;;12.77;3.03;;;23.10;99.90;;;;;;4978259;28;20510;-75
2022/06/12 05:38:00;;;;;;;17.35;3.20;;;21.90;99.90;;;;;;5000953;28;20042;-74
2022/06/12 05:40:30;;;;;;;16.05;3.33;;;20.80;99.90;;;;;;4965888;28;20039;-74
2022/06/12 05:42:56;;;;;;;18.10;3.75;;;20.00;99.90;;;;;;4989112;28;21076;-74
2022/06/12 05:45:24;;;;;;;12.77;3.38;;;19.30;99.90;;;;;;4987335;28;20080;-74
2022/06/12 05:47:54;;;;;;;13.90;3.83;;;18.80;99.90;;;;;;4975416;28;20053;-74
2022/06/12 05:50:23;;;;;;;16.95;3.92;;;18.40;99.90;;;;;;4982560;28;20168;-74
2022/06/12 05:52:49;;;;;;;16.30;4.00;;;18.10;99.90;;;;;;4988960;28;20050;-75
2022/06/12 05:55:15;;;;;;;18.60;4.40;;;18.00;99.90;;;;;;5009748;28;20593;-74
2022/06/12 05:57:41;;;;;;;24.55;4.90;;;18.50;99.90;;;;;;4976658;28;20053;-74
2022/06/12 06:00:13;;;;;;;19.63;4.72;;;19.10;99.90;;;;;;5003447;28;20042;-74
2022/06/12 06:02:38;;;;;;;20.92;4.95;;;20.00;99.90;;;;;;4989946;28;20045;-74
2022/06/12 06:05:06;;;;;;;17.92;4.22;;;20.90;99.90;;;;;;5004495;28;20038;-75
2022/06/12 06:07:33;;;;;;;18.98;5.07;;;21.10;99.90;;;;;;4994834;28;20478;-74
2022/06/12 06:10:00;;;;;;;19.77;4.50;;;21.70;99.90;;;;;;4987726;28;20061;-74
2022/06/12 06:12:25;;;;;;;18.30;5.07;;;22.00;99.90;;;;;;4996277;28;20399;-74
2022/06/12 06:14:51;;;;;;;19.45;4.40;;;22.50;99.90;;;;;;4976195;28;20581;-74
2022/06/12 06:17:17;;;;;;;18.42;4.60;;;23.60;99.90;;;;;;4992665;28;20116;-74
2022/06/12 06:19:43;;;;;;;21.02;4.55;;;24.00;99.90;;;;;;4978025;28;20702;-74
2022/06/12 06:22:08;;;;;;;22.05;4.93;;;23.70;99.90;;;;;;4989682;28;20046;-74
2022/06/12 06:24:34;;;;;;;21.95;4.95;;;22.80;99.90;;;;;;4975803;28;20041;-73
2022/06/12 06:27:00;;;;;;;15.85;4.53;;;21.90;99.90;;;;;;5003979;28;20048;-74
2022/06/12 06:29:26;;;;;;;18.42;4.43;;;21.10;99.90;;;;;;4992776;28;20045;-74
2022/06/12 06:31:51;;;;;;;22.67;5.30;;;20.50;99.90;;;;;;4975750;28;20041;-74
2022/06/12 06:34:17;;;;;;;24.30;6.20;;;20.00;99.90;;;;;;5004693;28;20056;-74
2022/06/12 06:36:43;;;;;;;21.90;5.60;;;19.60;99.90;;;;;;4985477;28;20096;-75
2022/06/12 06:39:08;;;;;;;22.30;5.20;;;19.30;99.90;;;;;;4985886;28;20046;-75
2022/06/12 06:41:34;;;;;;;23.67;5.55;;;19.00;99.90;;;;;;4990133;28;20092;-75
2022/06/12 06:46:44;;;;;;;21.75;5.63;;;18.70;99.90;;;;;;5007355;28;20464;-75
2022/06/12 06:49:10;;;;;;;22.40;5.50;;;18.70;99.90;;;;;;4977297;28;20056;-75
2022/06/12 06:51:36;;;;;;;20.80;5.15;;;18.70;99.90;;;;;;5007716;28;20042;-74
2022/06/12 06:54:04;;;;;;;21.52;5.65;;;18.70;99.90;;;;;;4976632;28;20053;-75
2022/06/12 06:56:30;;;;;;;22.70;4.80;;;18.70;99.90;;;;;;4991894;28;20046;-75
2022/06/12 06:58:57;;;;;;;24.33;5.50;;;18.60;99.90;;;;;;4992050;28;20057;-75
2022/06/12 07:01:23;;;;;;;22.98;5.10;;;18.70;99.90;;;;;;4985819;28;20583;-75
2022/06/12 07:03:48;;;;;;;21.42;5.00;;;18.60;99.90;;;;;;4991438;28;20081;-74
2022/06/12 07:06:15;;;;;;;20.98;4.57;;;18.60;99.90;;;;;;4990568;28;20367;-74
2022/06/12 07:08:42;;;;;;;17.70;3.95;;;18.60;99.90;;;;;;5006585;28;20037;-74
2022/06/12 07:11:08;;;;;;;20.13;4.50;;;18.90;99.90;;;;;;4993175;28;20082;-75
2022/06/12 07:13:34;;;;;;;18.08;4.95;;;19.10;99.90;;;;;;5005575;28;20085;-75
2022/06/12 07:15:59;;;;;;;21.23;5.32;;;19.50;99.90;;;;;;4987889;28;20050;-75
2022/06/12 07:18:25;;;;;;;19.15;4.63;;;19.70;99.90;;;;;;4987333;28;20052;-74
2022/06/12 07:20:54;;;;;;;17.98;4.30;;;20.20;99.90;;;;;;4989178;28;20729;-74
2022/06/12 07:23:23;;;;;;;21.52;5.00;;;20.80;99.90;;;;;;4983140;28;20065;-74
2022/06/12 07:25:58;;;;;;;16.30;4.05;;;21.10;99.90;;;;;;4997631;28;20472;-74
2022/06/12 07:28:25;;;;;;;18.77;4.38;;;21.40;99.90;;;;;;4989496;28;20045;-74
2022/06/12 07:30:52;;;;;;;18.98;4.25;;;21.70;99.90;;;;;;4986449;28;20469;-74
2022/06/12 07:33:19;;;;;;;17.35;3.65;;;21.80;99.90;;;;;;4984694;28;20050;-74
2022/06/12 07:35:46;;;;;;;16.52;3.90;;;22.00;99.90;;;;;;4985869;28;20069;-74
2022/06/12 07:38:14;;;;;;;16.15;4.25;;;22.00;99.90;;;;;;4976545;28;20123;-74
2022/06/12 07:40:44;;;;;;;16.10;3.70;;;22.10;99.90;;;;;;4985854;28;20052;-74
2022/06/12 07:43:10;;;;;;;15.82;4.53;;;22.50;99.90;;;;;;4981854;28;20518;-75
2022/06/12 07:45:37;;;;;;;16.77;4.65;;;22.80;99.90;;;;;;4986762;28;20537;-75
2022/06/12 07:48:03;;;;;;;18.17;4.35;;;23.20;99.90;;;;;;4984807;28;20053;-74
2022/06/12 07:50:30;;;;;;;18.00;4.28;;;23.50;99.90;;;;;;4981956;28;20053;-74
2022/06/12 07:52:55;;;;;;;12.18;3.95;;;23.70;99.90;;;;;;4985462;28;20152;-74
2022/06/12 07:55:21;;;;;;;16.20;4.88;;;23.70;99.90;;;;;;4983476;28;20054;-74
2022/06/12 07:57:48;;;;;;;17.85;4.30;;;23.80;99.90;;;;;;4986506;28;20654;-75
2022/06/12 08:00:15;;;;;;;15.57;3.60;;;24.00;99.90;;;;;;4972267;28;20052;-74
2022/06/12 08:02:43;;;;;;;14.15;3.50;;;24.10;99.90;;;;;;4998993;28;20038;-72
2022/06/12 08:05:09;;;;;;;13.15;3.40;;;24.00;99.90;;;;;;4985756;28;20181;-72
2022/06/12 08:07:38;;;;;;;17.63;4.20;;;23.90;99.90;;;;;;4974628;28;20487;-72
2022/06/12 08:10:05;;;;;;;16.50;3.92;;;23.90;99.90;;;;;;4988272;28;20100;-74
2022/06/12 08:12:39;;;;;;;15.13;4.00;;;24.00;99.90;;;;;;4984021;28;20103;-74
2022/06/12 08:15:07;;;;;;;14.27;3.80;;;24.10;99.90;;;;;;4997182;28;20042;-74
2022/06/12 08:17:33;;;;;;;13.68;3.15;;;24.00;99.90;;;;;;5013692;28;20052;-75
2022/06/12 08:22:45;;;;;;;17.92;4.32;;;23.80;99.90;;;;;;5006423;28;20552;-74
2022/06/12 08:25:10;;;;;;;13.95;3.80;;;23.50;99.90;;;;;;5004527;28;20049;-74
2022/06/12 08:27:36;;;;;;;14.68;3.58;;;23.20;99.90;;;;;;5000818;28;20505;-74
2022/06/12 08:30:04;;;;;;;19.83;3.65;;;22.80;99.90;;;;;;4998430;28;20073;-75
2022/06/12 08:32:31;;;;;;;15.60;4.18;;;22.60;99.90;;;;;;4993492;28;20050;-74
2022/06/12 08:35:01;;;;;;;15.63;3.10;;;22.30;99.90;;;;;;5018947;28;20054;-75
2022/06/12 08:37:30;;;;;;;20.00;4.80;;;22.50;99.90;;;;;;5015959;28;20479;-76
2022/06/12 08:39:57;;;;;;;18.17;3.90;;;22.70;99.90;;;;;;4997321;28;20522;-76
2022/06/12 08:42:35;;;;;;;20.75;3.92;;;22.50;99.90;;;;;;5003817;28;20152;-75
2022/06/12 08:45:04;;;;;;;14.95;4.50;;;22.20;99.90;;;;;;5000279;28;20421;-75
2022/06/12 08:47:39;;;;;;;13.52;3.50;;;22.00;99.90;;;;;;4982849;28;20042;-76
2022/06/12 08:50:23;;;;;;;16.02;3.88;;;22.40;99.90;;;;;;4998364;28;20061;-76
2022/06/12 08:53:10;;;;;;;11.48;3.38;;;23.10;99.90;;;;;;4994922;28;21526;-75
2022/06/12 08:55:50;;;;;;;13.73;3.85;;;23.40;99.90;;;;;;5013334;28;20454;-75
2022/06/12 08:58:30;;;;;;;12.18;3.20;;;23.20;99.90;;;;;;5000338;28;20398;-76
2022/06/12 09:00:57;;;;;;;16.92;3.53;;;22.80;99.90;;;;;;5000653;28;20558;-76
2022/06/12 09:03:26;;;;;;;11.45;2.78;;;22.40;99.90;;;;;;5002800;28;20109;-75
2022/06/12 09:05:53;;;;;;;14.85;4.07;;;22.00;99.90;;;;;;4995748;28;20033;-75
2022/06/12 09:08:36;;;;;;;13.05;3.35;;;21.70;99.90;;;;;;5004913;28;20507;-74
2022/06/12 09:11:19;;;;;;;13.25;3.08;;;21.70;99.90;;;;;;5006046;28;20046;-75
2022/06/12 09:13:56;;;;;;;11.90;3.38;;;21.60;99.90;;;;;;5003833;28;20131;-72
2022/06/12 09:16:32;;;;;;;11.75;3.47;;;21.90;99.90;;;;;;4980929;28;20057;-72
2022/06/12 09:19:17;;;;;;;12.55;3.00;;;22.60;99.90;;;;;;4998801;28;20118;-71
2022/06/12 09:22:09;;;;;;;12.05;3.22;;;23.10;99.90;;;;;;4983972;28;20085;-74
2022/06/12 09:24:57;;;;;;;11.07;3.05;;;23.70;99.90;;;;;;4982844;28;20072;-75
2022/06/12 09:28:08;;;;;;;12.48;2.92;;;24.00;99.90;;;;;;4982693;28;20373;-75
2022/06/12 09:30:48;;;;;;;12.97;3.17;;;24.00;99.90;;;;;;4961889;28;20054;-76
2022/06/12 09:33:22;;;;;;;9.55;2.92;;;24.20;99.90;;;;;;5000705;28;20042;-75
2022/06/12 09:36:04;;;;;;;12.10;3.38;;;24.50;99.90;;;;;;4986751;28;20810;-75
2022/06/12 09:38:39;;;;;;;9.07;2.53;;;24.80;99.90;;;;;;4992145;28;20124;-75
2022/06/12 09:41:33;;;;;;;11.48;3.03;;;24.60;99.90;;;;;;4989695;28;20049;-76
2022/06/12 09:44:41;;;;;;;11.38;2.38;;;24.60;99.90;;;;;;4971642;28;20046;-75
2022/06/12 09:47:22;;;;;;;10.45;2.83;;;24.90;99.90;;;;;;4987392;28;20050;-76
2022/06/12 09:50:08;;;;;;;9.25;2.15;;;25.30;99.90;;;;;;4991564;28;20617;-76
2022/06/12 09:53:14;;;;;;;11.07;2.50;;;25.20;99.90;;;;;;5008464;28;20085;-75
2022/06/12 09:55:57;;;;;;;8.77;2.60;;;24.90;99.90;;;;;;5004241;28;20046;-75
2022/06/12 09:58:29;;;;;;;7.65;2.40;;;24.50;99.90;;;;;;4990327;28;20050;-75
2022/06/12 10:01:08;;;;;;;7.93;2.38;;;24.50;99.70;;;;;;5005137;28;20073;-75
2022/06/12 10:04:07;;;;;;;11.80;2.17;;;24.80;99.90;;;;;;4976697;28;20057;-75
2022/06/12 10:06:42;;;;;;;13.68;2.58;;;24.80;99.90;;;;;;4983446;28;20414;-76
2022/06/12 10:09:56;;;;;;;9.70;2.50;;;24.80;99.90;;;;;;4988080;28;20045;-75
2022/06/12 10:12:34;;;;;;;7.82;2.40;;;25.10;98.40;;;;;;4946540;28;20129;-76
2022/06/12 10:15:06;;;;;;;7.05;2.03;;;25.30;96.90;;;;;;5000626;28;20191;-76
2022/06/12 10:17:43;;;;;;;6.78;2.10;;;25.40;95.40;;;;;;5006342;28;20515;-73
2022/06/12 10:20:14;;;;;;;7.03;2.20;;;25.50;96.20;;;;;;4986655;28;20123;-73
2022/06/12 10:22:43;;;;;;;9.02;2.30;;;25.30;95.10;;;;;;4983265;28;20073;-75
2022/06/12 10:25:23;;;;;;;7.55;2.17;;;24.80;94.50;;;;;;5004622;28;20057;-75
2022/06/12 10:27:54;;;;;;;6.65;1.90;;;24.20;95.50;;;;;;4990291;28;20046;-76
2022/06/12 10:30:23;;;;;;;;;;;24.10;98.60;;;;;;5004071;28;20125;-75
2022/06/12 10:32:52;;;;;;;9.45;2.70;;;24.40;99.50;;;;;;5017584;28;20024;-75
2022/06/12 10:35:21;;;;;;;12.18;3.13;;;24.80;99.90;;;;;;5004059;28;20041;-75
2022/06/12 10:37:47;;;;;;;9.88;2.13;;;25.20;98.10;;;;;;5021114;28;20042;-75
2022/06/12 10:40:16;;;;;;;7.30;2.03;;;25.20;95.00;;;;;;5004479;28;20353;-75
2022/06/12 10:43:06;;;;;;;8.73;2.13;;;24.60;93.40;;;;;;5021557;28;20069;-74
2022/06/12 10:45:40;;;;;;;8.90;2.53;;;23.90;95.50;;;;;;5007392;28;20061;-72
2022/06/12 10:48:24;;;;;;;10.35;2.22;;;23.90;96.00;;;;;;5003339;28;20060;-72
2022/06/12 10:50:57;;;;;;;9.38;2.55;;;24.20;98.40;;;;;;5004713;28;20057;-75
2022/06/12 10:53:26;;;;;;;9.55;2.72;;;24.10;94.60;;;;;;5006159;28;20046;-72
2022/06/12 10:56:13;;;;;;;8.25;2.15;;;23.70;94.40;;;;;;5019790;28;20200;-73
2022/06/12 10:58:51;;;;;;;7.97;2.20;;;23.40;96.70;;;;;;4987244;28;20124;-73
2022/06/12 11:01:24;;;;;;;11.88;2.45;;;23.40;98.90;;;;;;5005891;28;20128;-73
2022/06/12 11:04:02;;;;;;;7.78;2.47;;;23.40;96.50;;;;;;4992087;28;20436;-75
2022/06/12 11:06:56;;;;;;;10.90;2.70;;;23.50;96.40;;;;;;4986575;28;20136;-73
2022/06/12 11:09:40;;;;;;;12.18;2.90;;;23.40;95.40;;;;;;5003809;28;20460;-74
2022/06/12 11:12:57;;;;;;;8.15;2.38;;;23.10;94.60;;;;;;5005506;28;20086;-72
2022/06/12 11:15:29;;;;;;;11.07;1.88;;;22.60;93.90;;;;;;4998932;28;20060;-74
2022/06/12 11:18:14;;;;;;;9.77;2.42;;;22.30;95.20;;;;;;4998468;28;20049;-75
2022/06/12 11:20:43;;;;;;;8.60;2.75;;;22.30;98.40;;;;;;4999214;28;20104;-74
2022/06/12 11:23:24;;;;;;;9.88;2.63;;;22.60;99.00;;;;;;5014544;28;20187;-75
2022/06/12 11:26:12;;;;;;;9.63;2.75;;;23.00;99.50;;;;;;5021517;28;20034;-76
2022/06/12 11:29:25;;;;;;;9.23;2.80;;;23.10;99.20;;;;;;5003897;28;20041;-74
2022/06/12 11:32:07;;;;;;;8.52;2.10;;;23.10;96.50;;;;;;4996246;28;20054;-74
2022/06/12 11:34:48;;;;;;;12.95;2.53;;;23.40;98.60;;;;;;5004685;28;20038;-73
2022/06/12 11:37:28;;;;;;;8.77;2.28;;;23.30;95.20;;;;;;5024385;28;20513;-73
2022/06/12 11:40:12;;;;;;;13.07;2.93;;;23.20;95.50;;;;;;5000892;28;20105;-73
2022/06/12 11:42:48;;;;;;;9.18;2.80;;;23.20;94.90;;;;;;5000078;28;20136;-73
2022/06/12 11:45:38;;;;;;;11.38;2.78;;;23.40;93.30;;;;;;5000327;28;20049;-73
2022/06/12 11:48:12;;;;;;;11.15;2.30;;;23.40;92.70;;;;;;4988266;28;20061;-73
2022/06/12 11:50:38;;;;;;;8.57;2.53;;;23.60;94.00;;;;;;5003807;28;20052;-73
2022/06/12 11:53:22;;;;;;;7.68;2.13;;;23.80;94.40;;;;;;4988578;28;20045;-73
2022/06/12 11:56:05;;;;;;;8.43;2.30;;;24.10;93.50;;;;;;5000232;28;20041;-74
2022/06/12 11:58:52;;;;;;;8.48;2.17;;;24.20;91.70;;;;;;5005012;28;20494;-71
2022/06/12 12:01:56;;;;;;;8.52;2.45;;;23.90;91.90;;;;;;4994219;28;20042;-72
2022/06/12 12:04:45;;;;;;;8.80;2.15;;;23.80;90.50;;;;;;4981708;28;20041;-74
2022/06/12 12:07:30;;;;;;;8.80;2.67;;;23.70;91.00;;;;;;4984775;28;20680;-73
2022/06/12 12:10:21;;;;;;;9.90;2.47;;;23.40;92.50;;;;;;4983985;28;20296;-73
2022/06/12 12:12:50;;;;;;;;;;;23.30;93.10;;;;;;5002127;28;20068;-72
2022/06/12 12:15:30;;;;;;;9.70;2.35;;;23.40;94.30;;;;;;5000876;28;19921;-73
2022/06/12 12:17:58;;;;;;;10.45;2.60;;;23.50;93.40;;;;;;5014385;28;20042;-73
2022/06/12 12:20:30;;;;;;;7.07;2.45;;;23.30;92.90;;;;;;4981751;28;20042;-73
2022/06/12 12:23:25;;;;;;;8.55;1.90;;;23.40;95.10;;;;;;5013400;28;20275;-73
2022/06/12 12:25:56;;;;;;;7.03;2.13;;;23.70;96.30;;;;;;4998248;28;20049;-72
2022/06/12 12:29:00;;;;;;;7.55;1.80;;;23.60;93.50;;;;;;4981894;28;20089;-73
2022/06/12 12:31:27;;;;;;;8.20;2.20;;;23.20;91.00;;;;;;4951907;28;20046;-73
2022/06/12 12:33:55;;;;;;;7.38;2.47;;;23.10;92.80;;;;;;4994942;28;20412;-73
2022/06/12 12:42:33;;;;;;;7.60;2.13;;;22.20;93.70;;;;;;4999786;28;20133;-72
2022/06/12 12:45:24;;;;;;;9.32;2.22;;;22.50;93.70;;;;;;4997296;28;20135;-73
2022/06/12 12:48:06;;;;;;;8.00;2.03;;;22.80;93.10;;;;;;4980730;28;20050;-73
2022/06/12 12:50:46;;;;;;;8.63;2.63;;;23.20;94.40;;;;;;5001744;28;20089;-73
2022/06/12 12:53:26;;;;;;;7.00;2.20;;;23.40;92.50;;;;;;5014876;28;20054;-72
2022/06/12 12:56:04;;;;;;;10.30;2.30;;;23.60;90.60;;;;;;4998283;28;20499;-74
2022/06/12 12:58:32;;;;;;;9.73;2.63;;;23.50;89.90;;;;;;5010881;28;20057;-74
2022/06/12 13:01:14;;;;;;;9.63;2.17;;;23.30;91.50;;;;;;4995334;28;20088;-74
2022/06/12 13:03:49;;;;;;;10.93;2.97;;;23.10;91.10;;;;;;5000694;28;20052;-74
2022/06/12 13:06:34;;;;;;;12.35;2.75;;;23.00;91.60;;;;;;5001749;28;20148;-73
2022/06/12 13:09:05;;;;;;;8.18;2.65;;;23.10;91.60;;;;;;4983259;28;20502;-72
2022/06/12 13:12:01;;;;;;;9.18;2.53;;;23.20;91.00;;;;;;4998017;28;20056;-71
2022/06/12 13:14:50;;;;;;;11.80;2.50;;;23.30;91.00;;;;;;4994751;28;20058;-72
2022/06/12 13:17:22;;;;;;;9.82;2.72;;;23.50;87.90;;;;;;4992879;28;20065;-72
2022/06/12 13:19:58;;;;;;;10.93;2.60;;;23.50;90.20;;;;;;4991772;28;20111;-70
2022/06/12 13:22:53;;;;;;;8.98;2.90;;;23.70;90.60;;;;;;5008532;28;20085;-69
2022/06/12 13:25:24;;;;;;;10.07;3.13;;;23.40;90.90;;;;;;4987003;28;21382;-71
2022/06/12 13:27:58;;;;;;;10.90;2.33;;;23.10;90.90;;;;;;4991110;28;20049;-71
2022/06/12 13:30:32;;;;;;;12.55;2.80;;;23.10;91.60;;;;;;4991044;28;20129;-69
2022/06/12 13:33:25;;;;;;;11.57;2.78;;;23.20;92.30;;;;;;5005437;28;20041;-72
2022/06/12 13:36:00;;;;;;;9.65;2.38;;;23.40;92.10;;;;;;4992369;28;20038;-70